createdAt,value
2018-10-01T00:00:32.170Z,77.05
2018-10-01T00:02:44.357Z,76.91
2018-10-01T00:04:56.549Z,77.29
2018-10-01T00:07:08.735Z,76.38
2018-10-01T00:09:20.953Z,76.81
2018-10-01T00:11:33.154Z,77.30
2018-10-01T00:13:45.363Z,77.25
2018-10-01T00:15:57.568Z,77.47
2018-10-01T00:18:09.763Z,78.48
2018-10-01T00:20:27.628Z,77.01
2018-10-01T00:22:48.711Z,77.42
2018-10-01T00:25:00.907Z,77.69
2018-10-01T00:27:13.160Z,77.70
2018-10-01T00:29:25.319Z,78.05
2018-10-01T00:31:37.524Z,77.91
2018-10-01T00:33:49.761Z,77.46
2018-10-01T00:36:01.992Z,77.93
2018-10-01T00:38:14.253Z,77.59
2018-10-01T00:40:26.396Z,77.70
2018-10-01T00:42:38.664Z,77.31
2018-10-01T00:44:50.873Z,77.01
2018-10-01T00:47:03.055Z,76.99
2018-10-01T00:49:15.231Z,77.07
2018-10-01T00:51:27.475Z,76.98
2018-10-01T00:53:39.648Z,76.34
2018-10-01T00:55:51.832Z,76.50
2018-10-01T00:58:04.064Z,76.33
2018-10-01T01:00:16.254Z,76.91
2018-10-01T01:02:28.456Z,76.51
2018-10-01T01:04:40.688Z,76.97
2018-10-01T01:06:52.896Z,76.83
2018-10-01T01:09:06.298Z,76.02
2018-10-01T01:11:18.480Z,76.71
2018-10-01T01:13:30.676Z,76.40
2018-10-01T01:15:42.923Z,76.57
2018-10-01T01:17:55.148Z,76.19
2018-10-01T01:20:07.349Z,75.86
2018-10-01T01:22:19.535Z,75.85
2018-10-01T01:24:31.729Z,76.14
2018-10-01T01:26:43.955Z,76.43
2018-10-01T01:28:56.139Z,75.76
2018-10-01T01:31:08.352Z,76.87
2018-10-01T01:33:20.550Z,75.79
2018-10-01T01:35:32.731Z,75.93
2018-10-01T01:37:44.913Z,76.13
2018-10-01T01:39:57.123Z,76.36
2018-10-01T01:42:09.356Z,76.28
2018-10-01T01:44:21.557Z,76.28
2018-10-01T01:46:33.847Z,76.50
2018-10-01T01:48:46.037Z,76.44
2018-10-01T01:50:58.274Z,75.99
2018-10-01T01:53:10.574Z,76.31
2018-10-01T01:55:22.775Z,76.39
2018-10-01T01:57:34.990Z,75.81
2018-10-01T01:59:47.166Z,76.62
2018-10-01T02:01:59.418Z,76.71
2018-10-01T02:04:11.595Z,76.88
2018-10-01T02:06:23.815Z,76.42
2018-10-01T02:08:36.179Z,76.75
2018-10-01T02:10:48.358Z,77.02
2018-10-01T02:13:00.572Z,77.32
2018-10-01T02:15:12.754Z,77.47
2018-10-01T02:17:24.950Z,77.67
2018-10-01T02:19:37.160Z,77.78
2018-10-01T02:21:49.408Z,76.77
2018-10-01T02:24:01.587Z,77.74
2018-10-01T02:26:13.762Z,77.85
2018-10-01T02:28:25.947Z,77.91
2018-10-01T02:30:38.130Z,77.93
2018-10-01T02:32:50.329Z,77.81
2018-10-01T02:35:02.564Z,77.50
2018-10-01T02:37:14.824Z,77.41
2018-10-01T02:39:27.127Z,78.05
2018-10-01T02:41:39.367Z,77.45
2018-10-01T02:43:51.583Z,77.56
2018-10-01T02:46:03.836Z,77.43
2018-10-01T02:48:16.023Z,77.05
2018-10-01T02:50:28.211Z,77.19
2018-10-01T02:52:45.943Z,77.39
2018-10-01T02:54:58.202Z,76.52
2018-10-01T02:57:10.407Z,76.53
2018-10-01T02:59:22.606Z,76.21
2018-10-01T03:01:34.783Z,76.02
2018-10-01T03:03:46.955Z,75.85
2018-10-01T03:05:59.231Z,75.67
2018-10-01T03:08:11.471Z,76.29
2018-10-01T03:10:23.647Z,76.00
2018-10-01T03:12:35.895Z,75.73
2018-10-01T03:14:48.077Z,76.66
2018-10-01T03:17:00.268Z,75.93
2018-10-01T03:19:12.459Z,76.85
2018-10-01T03:21:24.748Z,76.61
2018-10-01T03:23:36.867Z,75.43
2018-10-01T03:25:49.044Z,75.27
2018-10-01T03:28:01.367Z,75.65
2018-10-01T03:30:13.584Z,75.86
2018-10-01T03:32:25.890Z,74.37
2018-10-01T03:34:38.094Z,74.04
2018-10-01T03:36:50.276Z,75.03
2018-10-01T03:39:02.657Z,73.23
2018-10-01T03:41:14.859Z,71.94
2018-10-01T03:43:27.099Z,72.55
2018-10-01T03:45:39.298Z,72.08
2018-10-01T03:47:51.519Z,70.84
2018-10-01T03:50:03.763Z,69.75
2018-10-01T03:52:15.946Z,70.19
2018-10-01T03:54:28.178Z,70.70
2018-10-01T03:56:40.394Z,69.93
2018-10-01T03:58:52.600Z,70.42
2018-10-01T04:01:04.859Z,69.91
2018-10-01T04:03:17.102Z,69.75
2018-10-01T04:05:29.288Z,70.41
2018-10-01T04:07:41.603Z,70.03
2018-10-01T04:09:53.852Z,70.59
2018-10-01T04:12:06.082Z,69.67
2018-10-01T04:14:18.300Z,68.81
2018-10-01T04:16:30.478Z,68.69
2018-10-01T04:18:42.690Z,69.47
2018-10-01T04:20:54.903Z,69.63
2018-10-01T04:23:07.159Z,68.72
2018-10-01T04:25:19.349Z,69.24
2018-10-01T04:27:31.756Z,68.61
2018-10-01T04:29:43.972Z,68.49
2018-10-01T04:31:56.147Z,69.02
2018-10-01T04:34:08.363Z,68.55
2018-10-01T04:36:20.656Z,69.18
2018-10-01T04:38:32.868Z,68.85
2018-10-01T04:40:45.076Z,68.09
2018-10-01T04:42:57.316Z,68.91
2018-10-01T04:45:09.535Z,68.07
2018-10-01T04:47:22.076Z,67.78
2018-10-01T04:49:34.276Z,68.66
2018-10-01T04:51:46.481Z,68.46
2018-10-01T04:53:58.698Z,68.58
2018-10-01T04:56:10.910Z,68.19
2018-10-01T04:58:24.063Z,68.47
2018-10-01T05:00:36.151Z,67.93
2018-10-01T05:02:48.343Z,67.92
2018-10-01T05:05:00.542Z,67.71
2018-10-01T05:07:12.850Z,67.75
2018-10-01T05:09:25.024Z,68.47
2018-10-01T05:11:37.188Z,67.94
2018-10-01T05:13:49.386Z,67.80
2018-10-01T05:16:01.584Z,67.41
2018-10-01T05:18:13.959Z,67.53
2018-10-01T05:20:26.190Z,67.54
2018-10-01T05:22:38.411Z,67.42
2018-10-01T05:24:50.646Z,67.39
2018-10-01T05:27:02.891Z,67.56
2018-10-01T05:29:15.046Z,67.67
2018-10-01T05:31:27.239Z,66.67
2018-10-01T05:33:39.429Z,66.82
2018-10-01T05:35:51.654Z,67.15
2018-10-01T05:38:03.864Z,67.35
2018-10-01T05:40:16.100Z,68.21
2018-10-01T05:42:28.311Z,67.11
2018-10-01T05:44:40.499Z,66.53
2018-10-01T05:46:52.730Z,67.39
2018-10-01T05:49:05.114Z,67.02
2018-10-01T05:51:17.282Z,66.99
2018-10-01T05:53:29.467Z,67.53
2018-10-01T05:55:41.650Z,66.25
2018-10-01T05:57:53.905Z,67.00
2018-10-01T06:00:06.180Z,65.80
2018-10-01T06:02:18.823Z,66.90
2018-10-01T06:04:31.051Z,65.77
2018-10-01T06:06:43.258Z,66.02
2018-10-01T06:08:55.475Z,66.50
2018-10-01T06:11:07.751Z,65.90
2018-10-01T06:13:19.939Z,65.37
2018-10-01T06:15:32.176Z,66.03
2018-10-01T06:17:44.413Z,65.17
2018-10-01T06:19:56.643Z,65.43
2018-10-01T06:22:08.933Z,65.84
2018-10-01T06:24:21.154Z,65.29
2018-10-01T06:26:33.350Z,64.03
2018-10-01T06:28:45.523Z,64.71
2018-10-01T06:30:57.694Z,65.28
2018-10-01T06:33:09.927Z,63.73
2018-10-01T06:35:22.199Z,64.73
2018-10-01T06:37:34.378Z,63.70
2018-10-01T06:39:46.575Z,64.12
2018-10-01T06:41:58.899Z,63.46
2018-10-01T06:44:11.035Z,64.21
2018-10-01T06:46:23.246Z,63.92
2018-10-01T06:48:35.490Z,63.79
2018-10-01T06:50:47.700Z,64.65
2018-10-01T06:52:59.977Z,63.59
2018-10-01T06:55:12.166Z,63.61
2018-10-01T06:57:24.427Z,63.58
2018-10-01T06:59:36.580Z,63.19
2018-10-01T07:01:48.783Z,63.69
2018-10-01T07:04:01.004Z,63.82
2018-10-01T07:06:13.223Z,63.27
2018-10-01T07:08:25.452Z,62.75
2018-10-01T07:10:37.645Z,63.54
2018-10-01T07:12:49.838Z,62.99
2018-10-01T07:15:02.089Z,62.73
2018-10-01T07:17:14.443Z,62.44
2018-10-01T07:19:26.614Z,63.23
2018-10-01T07:21:38.818Z,61.98
2018-10-01T07:23:51.183Z,62.12
2018-10-01T07:26:03.436Z,62.29
2018-10-01T07:28:15.632Z,63.12
2018-10-01T07:30:27.856Z,62.68
2018-10-01T07:32:40.019Z,62.24
2018-10-01T07:34:52.533Z,62.93
2018-10-01T07:37:04.775Z,61.74
2018-10-01T07:39:17.021Z,62.74
2018-10-01T07:41:29.220Z,62.07
2018-10-01T07:43:41.443Z,62.29
2018-10-01T07:45:53.661Z,62.65
2018-10-01T07:48:05.957Z,63.01
2018-10-01T07:50:18.154Z,62.14
2018-10-01T07:52:30.309Z,62.69
2018-10-01T07:54:42.493Z,63.18
2018-10-01T07:56:54.732Z,62.68
2018-10-01T07:59:07.011Z,62.25
2018-10-01T08:01:19.243Z,62.66
2018-10-01T08:03:31.510Z,63.36
2018-10-01T08:05:43.714Z,62.77
2018-10-01T08:07:55.983Z,63.98
2018-10-01T08:10:08.223Z,63.10
2018-10-01T08:12:20.457Z,64.04
2018-10-01T08:14:32.681Z,63.21
2018-10-01T08:16:44.911Z,63.55
2018-10-01T08:18:57.148Z,63.21
2018-10-01T08:21:09.347Z,64.00
2018-10-01T08:23:21.636Z,63.61
2018-10-01T08:25:33.775Z,63.55
2018-10-01T08:27:46.035Z,63.86
2018-10-01T08:29:58.377Z,63.54
2018-10-01T08:32:10.470Z,62.21
2018-10-01T08:34:22.630Z,62.76
2018-10-01T08:36:34.904Z,62.92
2018-10-01T08:38:47.261Z,63.38
2018-10-01T08:40:59.504Z,63.22
2018-10-01T08:43:11.634Z,63.03
2018-10-01T08:45:23.846Z,62.61
2018-10-01T08:47:36.267Z,62.76
2018-10-01T08:49:51.926Z,63.20
2018-10-01T08:52:39.495Z,63.59
2018-10-01T08:54:51.801Z,62.57
2018-10-01T08:57:04.069Z,63.72
2018-10-01T08:59:16.324Z,63.60
2018-10-01T09:01:28.564Z,63.56
2018-10-01T09:03:40.762Z,64.00
2018-10-01T09:05:52.975Z,64.04
2018-10-01T09:08:05.237Z,64.15
2018-10-01T09:10:17.371Z,63.91
2018-10-01T09:12:29.586Z,64.44
2018-10-01T09:14:41.816Z,64.54
2018-10-01T09:16:54.058Z,65.27
2018-10-01T09:19:06.255Z,64.64
2018-10-01T09:21:18.598Z,64.53
2018-10-01T09:23:31.107Z,63.60
2018-10-01T09:25:43.352Z,64.20
2018-10-01T09:27:55.599Z,64.69
2018-10-01T09:30:07.848Z,65.22
2018-10-01T09:32:20.081Z,64.90
2018-10-01T09:34:32.359Z,65.75
2018-10-01T09:36:44.562Z,64.16
2018-10-01T09:38:56.751Z,65.07
2018-10-01T09:41:09.001Z,65.48
2018-10-01T09:43:21.291Z,65.77
2018-10-01T09:45:33.496Z,65.10
2018-10-01T09:47:45.839Z,64.71
2018-10-01T09:49:58.076Z,64.62
2018-10-01T09:52:10.303Z,64.72
2018-10-01T09:54:22.510Z,64.51
2018-10-01T09:56:34.751Z,65.10
2018-10-01T09:58:46.939Z,64.45
2018-10-01T10:01:04.928Z,65.05
2018-10-01T10:03:17.212Z,64.71
2018-10-01T10:05:29.419Z,66.26
2018-10-01T10:07:41.639Z,65.16
2018-10-01T10:09:53.844Z,65.11
2018-10-01T10:12:06.074Z,65.20
2018-10-01T10:14:18.370Z,64.90
2018-10-01T10:16:30.588Z,65.27
2018-10-01T10:18:42.762Z,65.58
2018-10-01T10:20:55.011Z,65.95
2018-10-01T10:23:11.670Z,66.50
2018-10-01T10:25:27.751Z,65.59
2018-10-01T10:27:43.952Z,64.98
2018-10-01T10:29:56.169Z,65.25
2018-10-01T10:32:08.429Z,64.79
2018-10-01T10:34:20.632Z,64.43
2018-10-01T10:36:32.854Z,65.46
2018-10-01T10:38:45.102Z,64.52
2018-10-01T10:40:57.303Z,65.04
2018-10-01T10:43:09.578Z,63.77
2018-10-01T10:45:21.832Z,63.63
2018-10-01T10:47:34.058Z,64.12
2018-10-01T10:49:46.310Z,63.30
2018-10-01T10:51:58.535Z,62.51
2018-10-01T10:54:10.767Z,62.41
2018-10-01T10:56:22.923Z,62.48
2018-10-01T10:58:35.152Z,62.90
2018-10-01T11:00:47.427Z,61.94
2018-10-01T11:02:59.616Z,62.46
2018-10-01T11:05:11.827Z,62.11
2018-10-01T11:07:24.072Z,62.10
2018-10-01T11:09:36.316Z,61.34
2018-10-01T11:11:48.504Z,61.98
2018-10-01T11:14:00.740Z,61.70
2018-10-01T11:16:12.914Z,59.13
2018-10-01T11:18:25.148Z,59.81
2018-10-01T11:20:37.409Z,60.42
2018-10-01T11:22:49.641Z,59.09
2018-10-01T11:25:01.884Z,59.35
2018-10-01T11:27:14.213Z,59.82
2018-10-01T11:29:26.349Z,60.01
2018-10-01T11:31:38.632Z,59.55
2018-10-01T11:33:50.811Z,59.38
2018-10-01T11:36:03.061Z,58.28
2018-10-01T11:38:15.353Z,57.00
2018-10-01T11:40:27.536Z,57.02
2018-10-01T11:42:39.775Z,57.74
2018-10-01T11:44:52.024Z,57.47
2018-10-01T11:47:04.281Z,57.13
2018-10-01T11:49:16.469Z,55.71
2018-10-01T11:51:28.774Z,55.56
2018-10-01T11:53:40.986Z,56.82
2018-10-01T11:55:53.299Z,56.28
2018-10-01T11:58:05.558Z,56.37
2018-10-01T12:00:18.331Z,55.57
2018-10-01T12:02:30.637Z,54.10
2018-10-01T12:04:42.892Z,54.82
2018-10-01T12:06:55.147Z,54.82
2018-10-01T12:09:08.868Z,54.73
2018-10-01T12:11:21.052Z,54.84
2018-10-01T12:13:33.302Z,53.99
2018-10-01T12:15:45.582Z,55.95
2018-10-01T12:17:57.782Z,55.85
2018-10-01T12:20:09.871Z,55.50
2018-10-01T12:22:22.117Z,55.83
2018-10-01T12:24:34.327Z,55.91
2018-10-01T12:26:46.592Z,57.19
2018-10-01T12:28:58.922Z,56.80
2018-10-01T12:31:11.117Z,56.59
2018-10-01T12:33:23.322Z,57.08
2018-10-01T12:35:35.565Z,56.57
2018-10-01T12:37:48.680Z,57.18
2018-10-01T12:40:00.923Z,56.51
2018-10-01T12:42:13.259Z,57.31
2018-10-01T12:44:25.492Z,55.27
2018-10-01T12:46:37.747Z,55.52
2018-10-01T12:48:49.950Z,54.72
2018-10-01T12:51:02.246Z,56.02
2018-10-01T12:53:14.718Z,53.73
2018-10-01T12:55:26.938Z,54.33
2018-10-01T12:57:39.230Z,52.86
2018-10-01T12:59:51.440Z,52.58
2018-10-01T13:02:03.738Z,52.46
2018-10-01T13:04:15.960Z,51.83
2018-10-01T13:06:28.286Z,51.85
2018-10-01T13:08:40.428Z,51.67
2018-10-01T13:10:52.670Z,52.85
2018-10-01T13:13:04.914Z,51.53
2018-10-01T13:15:17.211Z,51.41
2018-10-01T13:17:29.456Z,51.15
2018-10-01T13:19:41.788Z,51.01
2018-10-01T13:21:54.027Z,51.31
2018-10-01T13:24:06.472Z,51.79
2018-10-01T13:26:18.622Z,51.28
2018-10-01T13:28:30.880Z,51.85
2018-10-01T13:30:43.323Z,52.13
2018-10-01T13:32:55.548Z,51.85
2018-10-01T13:35:07.839Z,53.10
2018-10-01T13:37:20.088Z,52.55
2018-10-01T13:39:32.385Z,50.68
2018-10-01T13:41:44.683Z,52.23
2018-10-01T13:43:56.911Z,51.20
2018-10-01T13:46:09.217Z,52.71
2018-10-01T13:48:21.516Z,53.30
2018-10-01T13:50:33.699Z,53.99
2018-10-01T13:52:45.995Z,54.32
2018-10-01T13:54:58.240Z,58.30
2018-10-01T13:57:10.533Z,61.55
2018-10-01T13:59:22.773Z,62.69
2018-10-01T14:01:35.052Z,64.18
2018-10-01T14:03:47.280Z,64.85
2018-10-01T14:05:59.531Z,65.12
2018-10-01T14:08:11.780Z,65.87
2018-10-01T14:10:24.050Z,67.15
2018-10-01T14:12:36.297Z,65.35
2018-10-01T14:14:48.571Z,64.04
2018-10-01T14:17:00.780Z,64.23
2018-10-01T14:19:13.074Z,65.28
2018-10-01T14:21:25.286Z,64.38
2018-10-01T14:23:37.568Z,64.55
2018-10-01T14:25:49.808Z,65.54
2018-10-01T14:28:02.055Z,65.10
2018-10-01T14:30:14.351Z,64.74
2018-10-01T14:32:26.579Z,63.96
2018-10-01T14:34:38.867Z,63.61
2018-10-01T14:36:51.198Z,63.39
2018-10-01T14:39:04.735Z,63.82
2018-10-01T14:41:16.956Z,59.26
2018-10-01T14:43:29.221Z,59.66
2018-10-01T14:45:41.511Z,58.61
2018-10-01T14:47:53.784Z,57.74
2018-10-01T14:50:06.112Z,55.86
2018-10-01T14:52:18.388Z,56.68
2018-10-01T14:54:30.697Z,53.21
2018-10-01T14:56:42.948Z,53.82
2018-10-01T14:58:55.154Z,53.09
2018-10-01T15:01:07.456Z,51.13
2018-10-01T15:03:19.748Z,50.38
2018-10-01T15:05:32.036Z,51.21
2018-10-01T15:07:44.244Z,52.11
2018-10-01T15:09:56.669Z,52.45
2018-10-01T15:12:08.989Z,52.45
2018-10-01T15:14:21.264Z,51.76
2018-10-01T15:16:33.764Z,53.19
2018-10-01T15:18:46.034Z,54.47
2018-10-01T15:20:58.290Z,54.61
2018-10-01T15:23:10.566Z,53.19
2018-10-01T15:25:22.863Z,52.86
2018-10-01T15:27:35.175Z,52.85
2018-10-01T15:29:47.440Z,52.97
2018-10-01T15:31:59.767Z,62.48
2018-10-01T15:34:12.067Z,58.26
2018-10-01T15:36:24.397Z,52.94
2018-10-01T15:38:36.724Z,51.62
2018-10-01T15:40:49.038Z,50.07
2018-10-01T15:43:01.334Z,48.11
2018-10-01T15:45:13.603Z,47.16
2018-10-01T15:47:25.911Z,47.99
2018-10-01T15:49:38.172Z,49.04
2018-10-01T15:51:50.558Z,50.71
2018-10-01T15:54:02.835Z,52.34
2018-10-01T15:56:15.137Z,51.65
2018-10-01T15:58:27.402Z,50.80
2018-10-01T16:00:39.724Z,51.20
2018-10-01T16:02:52.000Z,51.51
2018-10-01T16:05:04.494Z,51.37
2018-10-01T16:07:16.763Z,52.21
2018-10-01T16:09:29.028Z,51.47
2018-10-01T16:11:41.304Z,51.51
2018-10-01T16:13:53.595Z,53.16
2018-10-01T16:16:06.269Z,53.86
2018-10-01T16:18:18.690Z,53.84
2018-10-01T16:22:56.300Z,54.76
2018-10-01T16:25:08.648Z,54.19
2018-10-01T16:27:20.906Z,55.57
2018-10-01T16:29:33.194Z,54.14
2018-10-01T16:31:45.507Z,53.76
2018-10-01T16:33:57.796Z,53.31
2018-10-01T16:36:10.073Z,53.74
2018-10-01T16:38:22.329Z,52.67
2018-10-01T16:40:34.651Z,53.65
2018-10-01T16:42:46.931Z,53.69
2018-10-01T16:44:59.254Z,53.28
2018-10-01T16:47:11.539Z,54.37
2018-10-01T16:49:23.839Z,54.33
2018-10-01T16:51:36.149Z,54.72
2018-10-01T16:53:48.395Z,54.14
2018-10-01T16:56:00.662Z,55.01
2018-10-01T16:58:12.957Z,55.24
2018-10-01T17:00:25.149Z,55.83
2018-10-01T17:02:37.372Z,57.70
2018-10-01T17:04:49.685Z,58.53
2018-10-01T17:07:01.955Z,57.02
2018-10-01T17:09:14.170Z,59.24
2018-10-01T17:11:26.743Z,59.49
2018-10-01T17:13:39.137Z,60.77
2018-10-01T17:15:51.819Z,59.76
2018-10-01T17:18:04.091Z,61.00
2018-10-01T17:20:16.348Z,62.25
2018-10-01T17:22:28.699Z,61.96
2018-10-01T17:24:40.974Z,63.27
2018-10-01T17:26:53.360Z,62.68
2018-10-01T17:29:05.696Z,64.44
2018-10-01T17:31:17.998Z,65.26
2018-10-01T17:33:30.254Z,64.39
2018-10-01T17:35:42.454Z,63.48
2018-10-01T17:37:54.739Z,67.19
2018-10-01T17:40:07.064Z,68.19
2018-10-01T17:42:19.419Z,68.82
2018-10-01T17:44:31.631Z,68.22
2018-10-01T17:46:43.833Z,69.13
2018-10-01T17:48:56.124Z,69.85
2018-10-01T17:51:08.361Z,69.10
2018-10-01T17:53:20.739Z,70.47
2018-10-01T17:55:32.956Z,71.06
2018-10-01T17:57:45.260Z,71.25
2018-10-01T17:59:57.649Z,70.60
2018-10-01T18:02:09.844Z,71.36
2018-10-01T18:04:22.127Z,71.64
2018-10-01T18:06:34.381Z,71.54
2018-10-01T18:08:46.704Z,72.50
2018-10-01T18:10:59.607Z,71.89
2018-10-01T18:13:11.911Z,72.09
2018-10-01T18:15:24.163Z,70.49
2018-10-01T18:17:36.382Z,70.05
2018-10-01T18:19:48.681Z,70.39
2018-10-01T18:22:00.982Z,70.95
2018-10-01T18:24:13.256Z,70.74
2018-10-01T18:26:25.637Z,69.56
2018-10-01T18:28:37.939Z,68.29
2018-10-01T18:30:56.618Z,69.03
2018-10-01T18:33:08.879Z,69.06
2018-10-01T18:35:21.127Z,68.46
2018-10-01T18:37:33.435Z,69.81
2018-10-01T18:39:45.588Z,69.13
2018-10-01T18:41:57.955Z,68.33
2018-10-01T18:44:10.253Z,66.88
2018-10-01T18:46:22.536Z,66.45
2018-10-01T18:48:34.808Z,67.13
2018-10-01T18:50:47.028Z,67.56
2018-10-01T18:52:59.367Z,67.24
2018-10-01T18:55:11.669Z,67.07
2018-10-01T18:57:23.974Z,66.96
2018-10-01T18:59:36.251Z,66.10
2018-10-01T19:01:48.464Z,66.06
2018-10-01T19:04:00.873Z,65.93
2018-10-01T19:06:13.163Z,66.19
2018-10-01T19:08:25.447Z,67.10
2018-10-01T19:10:37.771Z,65.60
2018-10-01T19:12:50.053Z,65.50
2018-10-01T19:15:02.434Z,65.60
2018-10-01T19:17:14.666Z,65.49
2018-10-01T19:19:26.991Z,66.90
2018-10-01T19:21:39.327Z,66.41
2018-10-01T19:23:51.659Z,65.98
2018-10-01T19:26:04.179Z,65.50
2018-10-01T19:28:16.289Z,65.57
2018-10-01T19:30:28.895Z,66.45
2018-10-01T19:32:41.131Z,66.32
2018-10-01T19:34:53.430Z,65.99
2018-10-01T19:37:05.724Z,65.30
2018-10-01T19:39:18.064Z,64.61
2018-10-01T19:41:30.280Z,64.64
2018-10-01T19:43:42.543Z,64.52
2018-10-01T19:45:54.852Z,64.27
2018-10-01T19:48:07.144Z,64.59
2018-10-01T19:50:19.383Z,64.84
2018-10-01T19:52:31.666Z,64.60
2018-10-01T19:54:43.898Z,65.27
2018-10-01T19:56:56.202Z,65.12
2018-10-01T19:59:08.428Z,64.30
2018-10-01T20:01:20.715Z,63.49
2018-10-01T20:03:32.980Z,64.69
2018-10-01T20:05:45.223Z,63.84
2018-10-01T20:07:57.487Z,63.23
2018-10-01T20:10:09.876Z,63.31
2018-10-01T20:12:22.109Z,63.93
2018-10-01T20:14:34.368Z,63.75
2018-10-01T20:16:46.677Z,62.90
2018-10-01T20:18:58.871Z,64.48
2018-10-01T20:21:11.128Z,63.85
2018-10-01T20:23:23.455Z,63.34
2018-10-01T20:25:35.848Z,63.62
2018-10-01T20:27:48.367Z,64.01
2018-10-01T20:30:00.470Z,63.67
2018-10-01T20:32:12.679Z,63.59
2018-10-01T20:34:24.950Z,64.60
2018-10-01T20:36:37.228Z,64.46
2018-10-01T20:38:49.526Z,64.75
2018-10-01T20:41:01.887Z,64.18
2018-10-01T20:43:14.171Z,65.25
2018-10-01T20:45:26.394Z,64.18
2018-10-01T20:47:38.724Z,65.07
2018-10-01T20:49:50.957Z,63.45
2018-10-01T20:52:03.241Z,63.49
2018-10-01T20:54:15.474Z,63.39
2018-10-01T20:56:27.758Z,64.38
2018-10-01T20:58:40.025Z,64.08
2018-10-01T21:00:52.274Z,64.72
2018-10-01T21:03:04.672Z,66.21
2018-10-01T21:05:16.942Z,64.92
2018-10-01T21:07:29.163Z,65.75
2018-10-01T21:09:41.377Z,64.71
2018-10-01T21:11:53.609Z,64.16
2018-10-01T21:14:05.930Z,65.12
2018-10-01T21:16:18.147Z,65.52
2018-10-01T21:18:30.352Z,65.10
2018-10-01T21:20:42.614Z,65.63
2018-10-01T21:22:54.842Z,64.99
2018-10-01T21:25:07.203Z,65.96
2018-10-01T21:27:19.450Z,65.29
2018-10-01T21:29:31.674Z,65.54
2018-10-01T21:31:43.922Z,65.77
2018-10-01T21:33:56.201Z,65.60
2018-10-01T21:36:08.478Z,65.09
2018-10-01T21:38:20.688Z,65.27
2018-10-01T21:40:33.003Z,64.40
2018-10-01T21:42:45.627Z,64.50
2018-10-01T21:44:58.820Z,64.09
2018-10-01T21:47:11.086Z,64.05
2018-10-01T21:49:23.343Z,62.79
2018-10-01T21:51:35.566Z,63.07
2018-10-01T21:53:47.891Z,62.74
2018-10-01T21:56:00.115Z,61.58
2018-10-01T21:58:12.351Z,61.70
2018-10-01T22:00:24.740Z,61.88
2018-10-01T22:02:37.011Z,61.22
2018-10-01T22:04:49.312Z,60.59
2018-10-01T22:07:01.533Z,60.72
2018-10-01T22:09:13.782Z,61.55
2018-10-01T22:11:26.020Z,60.89
2018-10-01T22:13:38.257Z,61.42
2018-10-01T22:15:50.456Z,61.80
2018-10-01T22:18:02.671Z,62.38
2018-10-01T22:20:14.951Z,62.34
2018-10-01T22:22:27.180Z,61.26
2018-10-01T22:24:39.426Z,61.13
2018-10-01T22:26:51.654Z,61.95
2018-10-01T22:29:03.948Z,61.51
2018-10-01T22:31:16.178Z,62.53
2018-10-01T22:33:28.457Z,61.91
2018-10-01T22:35:40.763Z,62.27
2018-10-01T22:37:52.989Z,62.92
2018-10-01T22:40:05.291Z,63.35
2018-10-01T22:42:17.527Z,62.87
2018-10-01T22:44:29.744Z,61.90
2018-10-01T22:46:41.980Z,62.47
2018-10-01T22:48:54.188Z,62.38
2018-10-01T22:51:06.454Z,63.34
2018-10-01T22:53:18.730Z,63.65
2018-10-01T22:55:30.971Z,62.54
2018-10-01T22:57:43.201Z,62.54
2018-10-01T22:59:55.400Z,62.76
2018-10-01T23:02:07.628Z,63.05
2018-10-01T23:04:19.815Z,62.69
2018-10-01T23:06:32.026Z,62.63
2018-10-01T23:08:44.238Z,63.76
2018-10-01T23:10:56.591Z,62.71
2018-10-01T23:13:08.816Z,63.60
2018-10-01T23:15:21.122Z,63.77
2018-10-01T23:17:33.342Z,63.17
2018-10-01T23:19:45.581Z,63.93
2018-10-01T23:21:57.835Z,63.26
2018-10-01T23:24:10.056Z,62.79
2018-10-01T23:26:22.283Z,62.83
2018-10-01T23:28:34.490Z,63.37
2018-10-01T23:30:46.716Z,62.85
2018-10-01T23:32:58.978Z,63.07
2018-10-01T23:35:11.192Z,63.92
2018-10-01T23:37:23.431Z,63.96
2018-10-01T23:39:35.695Z,64.14
2018-10-01T23:41:47.960Z,64.72
2018-10-01T23:44:00.155Z,65.25
2018-10-01T23:46:12.335Z,65.44
2018-10-01T23:48:24.542Z,65.11
2018-10-01T23:50:36.786Z,63.94
2018-10-01T23:52:49.006Z,63.88
2018-10-01T23:55:01.207Z,64.00
2018-10-01T23:57:13.423Z,63.96
2018-10-01T23:59:25.662Z,64.06
